createdAt,value
2019-05-18T00:01:17.800Z,11.50
2019-05-18T00:03:46.292Z,11.50
2019-05-18T00:06:14.796Z,11.40
2019-05-18T00:08:43.424Z,11.40
2019-05-18T00:11:11.857Z,11.40
2019-05-18T00:13:40.357Z,11.40
2019-05-18T00:16:08.813Z,11.40
2019-05-18T00:18:37.240Z,11.30
2019-05-18T00:21:06.211Z,11.40
2019-05-18T00:23:34.732Z,11.40
2019-05-18T00:26:03.249Z,11.40
2019-05-18T00:28:32.053Z,11.50
2019-05-18T00:31:00.501Z,11.50
2019-05-18T00:33:29.028Z,11.50
2019-05-18T00:35:57.582Z,11.50
2019-05-18T00:38:26.348Z,11.40
2019-05-18T00:40:55.093Z,11.40
2019-05-18T00:43:24.087Z,11.40
2019-05-18T00:45:52.556Z,11.50
2019-05-18T00:48:21.114Z,11.50
2019-05-18T00:50:49.549Z,11.50
2019-05-18T00:53:17.976Z,11.60
2019-05-18T00:55:46.468Z,11.60
2019-05-18T00:58:14.897Z,11.60
2019-05-18T01:00:43.496Z,11.60
2019-05-18T01:03:11.946Z,11.60
2019-05-18T01:05:40.372Z,11.60
2019-05-18T01:08:08.820Z,11.70
2019-05-18T01:10:37.369Z,11.70
2019-05-18T01:13:05.804Z,11.70
2019-05-18T01:15:34.384Z,11.70
2019-05-18T01:18:02.813Z,11.70
2019-05-18T01:20:31.390Z,11.70
2019-05-18T01:22:59.888Z,11.70
2019-05-18T01:25:28.392Z,11.70
2019-05-18T01:27:56.823Z,11.70
2019-05-18T01:30:26.268Z,11.60
2019-05-18T01:32:54.712Z,11.60
2019-05-18T01:35:23.476Z,11.60
2019-05-18T01:37:52.081Z,11.60
2019-05-18T01:40:20.650Z,11.60
2019-05-18T01:42:49.120Z,11.50
2019-05-18T01:45:18.299Z,11.50
2019-05-18T01:47:46.722Z,11.50
2019-05-18T01:50:15.356Z,11.50
2019-05-18T01:52:43.781Z,11.50
2019-05-18T01:55:12.684Z,11.50
2019-05-18T01:57:41.161Z,11.50
2019-05-18T02:00:10.426Z,11.50
2019-05-18T02:02:38.983Z,11.50
2019-05-18T02:05:07.745Z,11.50
2019-05-18T02:07:36.188Z,11.50
2019-05-18T02:10:06.593Z,11.40
2019-05-18T02:12:35.024Z,11.40
2019-05-18T02:15:04.261Z,11.40
2019-05-18T02:17:32.754Z,11.40
2019-05-18T02:20:01.392Z,11.40
2019-05-18T02:22:29.977Z,11.50
2019-05-18T02:24:58.410Z,11.40
2019-05-18T02:27:26.862Z,11.40
2019-05-18T02:29:55.285Z,11.40
2019-05-18T02:32:23.725Z,11.40
2019-05-18T02:34:52.188Z,11.40
2019-05-18T02:37:20.684Z,11.40
2019-05-18T02:39:50.769Z,11.40
2019-05-18T02:42:19.219Z,11.40
2019-05-18T02:44:47.852Z,11.40
2019-05-18T02:47:16.384Z,11.40
2019-05-18T02:49:44.954Z,11.40
2019-05-18T02:52:13.721Z,11.50
2019-05-18T02:54:42.222Z,11.40
2019-05-18T02:57:10.649Z,11.40
2019-05-18T02:59:39.476Z,11.30
2019-05-18T03:02:08.301Z,11.20
2019-05-18T03:04:36.862Z,11.20
2019-05-18T03:07:05.427Z,11.20
2019-05-18T03:09:33.937Z,11.20
2019-05-18T03:12:02.533Z,11.20
2019-05-18T03:14:31.038Z,11.20
2019-05-18T03:16:59.450Z,11.20
2019-05-18T03:19:28.186Z,11.20
2019-05-18T03:22:00.738Z,11.10
2019-05-18T03:24:26.841Z,11.10
2019-05-18T03:26:55.292Z,11.00
2019-05-18T03:29:23.822Z,10.90
2019-05-18T03:31:52.284Z,11.00
2019-05-18T03:34:20.901Z,11.00
2019-05-18T03:36:49.384Z,11.00
2019-05-18T03:39:17.846Z,11.00
2019-05-18T03:41:46.340Z,11.00
2019-05-18T03:44:14.907Z,11.00
2019-05-18T03:46:43.470Z,11.10
2019-05-18T03:49:26.276Z,11.10
2019-05-18T03:51:42.109Z,11.00
2019-05-18T03:54:10.552Z,11.00
2019-05-18T03:56:39.003Z,11.00
2019-05-18T03:59:07.527Z,11.00
2019-05-18T04:01:36.053Z,11.00
2019-05-18T04:04:04.482Z,11.00
2019-05-18T04:06:32.971Z,11.10
2019-05-18T04:09:01.558Z,11.10
2019-05-18T04:11:30.463Z,11.20
2019-05-18T04:13:59.165Z,11.20
2019-05-18T04:16:27.936Z,11.20
2019-05-18T04:18:56.509Z,11.20
2019-05-18T04:21:25.125Z,11.20
2019-05-18T04:23:54.002Z,11.20
2019-05-18T04:26:22.906Z,11.00
2019-05-18T04:28:51.500Z,11.00
2019-05-18T04:31:22.891Z,11.10
2019-05-18T04:33:52.290Z,11.10
2019-05-18T04:36:20.871Z,11.20
2019-05-18T04:38:49.515Z,11.40
2019-05-18T04:41:18.067Z,11.40
2019-05-18T04:43:46.526Z,11.40
2019-05-18T04:46:15.034Z,11.30
2019-05-18T04:48:43.459Z,11.20
2019-05-18T04:51:11.909Z,11.30
2019-05-18T04:53:40.352Z,11.40
2019-05-18T04:56:08.845Z,11.60
2019-05-18T04:58:37.289Z,11.80
2019-05-18T05:01:05.965Z,12.10
2019-05-18T05:03:34.425Z,12.60
2019-05-18T05:06:02.868Z,12.80
2019-05-18T05:08:31.354Z,12.90
2019-05-18T05:10:59.873Z,12.80
2019-05-18T05:13:28.306Z,12.90
2019-05-18T05:15:56.900Z,13.20
2019-05-18T05:20:53.449Z,15.20
2019-05-18T05:23:21.893Z,16.20
2019-05-18T05:25:50.316Z,16.00
2019-05-18T05:28:18.736Z,17.70
2019-05-18T05:30:47.272Z,17.80
2019-05-18T05:33:15.701Z,17.60
2019-05-18T05:35:44.133Z,18.20
2019-05-18T05:38:12.576Z,19.00
2019-05-18T05:40:41.012Z,18.90
2019-05-18T05:43:09.501Z,18.20
2019-05-18T05:45:38.021Z,17.30
2019-05-18T05:48:06.461Z,16.80
2019-05-18T05:50:36.596Z,16.40
2019-05-18T05:53:05.308Z,16.00
2019-05-18T05:55:33.732Z,15.70
2019-05-18T05:58:02.167Z,15.60
2019-05-18T06:00:30.685Z,15.40
2019-05-18T06:02:59.105Z,15.30
2019-05-18T06:05:27.601Z,15.00
2019-05-18T06:07:56.093Z,14.80
2019-05-18T06:10:24.522Z,14.70
2019-05-18T06:12:52.950Z,14.60
2019-05-18T06:15:21.471Z,14.50
2019-05-18T06:17:49.969Z,14.50
2019-05-18T06:20:18.551Z,14.50
2019-05-18T06:22:47.066Z,14.40
2019-05-18T06:25:17.066Z,14.40
2019-05-18T06:27:45.496Z,14.40
2019-05-18T06:30:14.381Z,14.40
2019-05-18T06:32:42.812Z,14.40
2019-05-18T06:35:11.481Z,14.50
2019-05-18T06:37:41.222Z,14.60
2019-05-18T06:40:09.802Z,14.70
2019-05-18T06:42:38.323Z,14.80
2019-05-18T06:45:09.840Z,15.00
2019-05-18T06:47:38.333Z,15.20
2019-05-18T06:50:12.109Z,15.30
2019-05-18T06:52:38.945Z,15.60
2019-05-18T06:55:07.701Z,16.00
2019-05-18T06:57:36.585Z,16.40
2019-05-18T07:00:13.897Z,16.70
2019-05-18T07:02:42.320Z,17.10
2019-05-18T07:05:10.917Z,17.30
2019-05-18T07:07:39.348Z,17.30
2019-05-18T07:10:08.016Z,17.50
2019-05-18T07:12:36.488Z,18.20
2019-05-18T07:15:06.913Z,19.20
2019-05-18T07:17:35.325Z,21.10
2019-05-18T07:20:05.208Z,22.90
2019-05-18T07:22:33.629Z,23.50
2019-05-18T07:25:02.087Z,24.30
2019-05-18T07:27:30.707Z,24.80
2019-05-18T07:29:59.288Z,25.10
2019-05-18T07:32:27.741Z,25.10
2019-05-18T07:34:56.234Z,25.90
2019-05-18T07:37:24.717Z,25.60
2019-05-18T07:39:53.258Z,24.60
2019-05-18T07:42:21.677Z,25.00
2019-05-18T07:45:11.284Z,25.40
2019-05-18T07:47:39.717Z,24.60
2019-05-18T07:50:08.477Z,25.40
2019-05-18T07:52:36.921Z,25.70
2019-05-18T07:55:06.735Z,25.30
2019-05-18T07:57:35.267Z,25.40
2019-05-18T08:00:05.521Z,26.30
2019-05-18T08:02:33.944Z,26.30
2019-05-18T08:05:02.389Z,26.60
2019-05-18T08:07:30.809Z,26.70
2019-05-18T08:09:59.241Z,24.30
2019-05-18T08:12:27.715Z,24.80
2019-05-18T08:14:56.185Z,24.80
2019-05-18T08:17:24.610Z,25.40
2019-05-18T08:19:53.053Z,25.20
2019-05-18T08:22:21.477Z,24.30
2019-05-18T08:24:49.925Z,25.00
2019-05-18T08:27:18.361Z,24.90
2019-05-18T08:29:46.811Z,25.70
2019-05-18T08:32:15.312Z,25.90
2019-05-18T08:34:44.315Z,26.00
2019-05-18T08:37:12.773Z,25.10
2019-05-18T08:39:41.379Z,24.80
2019-05-18T08:42:09.801Z,25.00
2019-05-18T08:44:38.459Z,24.80
2019-05-18T08:47:06.955Z,24.30
2019-05-18T08:49:35.389Z,23.50
2019-05-18T08:52:08.176Z,23.80
2019-05-18T08:54:34.091Z,24.20
2019-05-18T08:57:02.589Z,24.80
2019-05-18T08:59:31.013Z,23.70
2019-05-18T09:04:27.635Z,25.00
2019-05-18T09:06:56.065Z,25.60
2019-05-18T09:09:24.588Z,25.50
2019-05-18T09:11:53.034Z,25.50
2019-05-18T09:14:21.537Z,24.90
2019-05-18T09:16:50.010Z,25.10
2019-05-18T09:19:18.521Z,25.10
2019-05-18T09:21:46.944Z,24.90
2019-05-18T09:24:15.433Z,24.80
2019-05-18T09:26:43.856Z,24.50
2019-05-18T09:29:12.280Z,24.70
2019-05-18T09:31:40.749Z,24.90
2019-05-18T09:34:09.179Z,24.80
2019-05-18T09:36:37.600Z,25.50
2019-05-18T09:39:06.965Z,26.10
2019-05-18T09:41:35.908Z,26.40
2019-05-18T09:44:04.510Z,26.60
2019-05-18T09:46:32.969Z,26.20
2019-05-18T09:49:01.402Z,26.60
2019-05-18T09:51:30.114Z,26.70
2019-05-18T09:53:58.561Z,26.80
2019-05-18T09:56:27.049Z,27.00
2019-05-18T09:58:55.488Z,25.50
2019-05-18T10:01:24.178Z,26.10
2019-05-18T10:03:52.685Z,25.30
2019-05-18T10:06:21.187Z,25.90
2019-05-18T10:08:49.635Z,26.50
2019-05-18T10:11:18.077Z,26.90
2019-05-18T10:13:46.575Z,26.90
2019-05-18T10:16:15.134Z,26.90
2019-05-18T10:18:43.648Z,27.10
2019-05-18T10:21:12.081Z,27.50
2019-05-18T10:23:40.617Z,27.50
2019-05-18T10:26:09.143Z,27.30
2019-05-18T10:28:37.634Z,27.20
2019-05-18T10:31:06.186Z,27.40
2019-05-18T10:33:34.702Z,27.60
2019-05-18T10:36:03.126Z,27.60
2019-05-18T10:38:31.596Z,27.90
2019-05-18T10:41:00.089Z,28.50
2019-05-18T10:43:28.706Z,28.40
2019-05-18T10:45:57.238Z,28.50
2019-05-18T10:48:25.734Z,29.00
2019-05-18T10:50:54.229Z,28.00
2019-05-18T10:53:28.659Z,28.10
2019-05-18T10:55:52.967Z,28.30
2019-05-18T10:58:21.464Z,28.40
2019-05-18T11:00:49.913Z,28.90
2019-05-18T11:03:18.341Z,29.00
2019-05-18T11:05:46.777Z,29.30
2019-05-18T11:08:15.355Z,28.80
2019-05-18T11:10:43.785Z,29.20
2019-05-18T11:13:12.219Z,29.10
2019-05-18T11:15:40.719Z,29.20
2019-05-18T11:18:09.252Z,29.50
2019-05-18T11:20:37.767Z,29.60
2019-05-18T11:23:06.295Z,28.40
2019-05-18T11:25:34.720Z,27.90
2019-05-18T11:28:03.240Z,27.40
2019-05-18T11:30:31.764Z,27.00
2019-05-18T11:33:00.193Z,25.60
2019-05-18T11:35:28.728Z,24.50
2019-05-18T11:37:57.186Z,24.10
2019-05-18T11:40:25.799Z,23.40
2019-05-18T11:42:55.099Z,23.30
2019-05-18T11:45:25.097Z,23.90
2019-05-18T11:47:53.631Z,24.20
2019-05-18T11:50:22.605Z,24.20
2019-05-18T11:52:51.339Z,23.30
2019-05-18T11:55:21.104Z,23.10
2019-05-18T11:57:49.633Z,22.50
2019-05-18T12:00:18.727Z,22.40
2019-05-18T12:02:47.152Z,21.80
2019-05-18T12:05:16.006Z,21.70
2019-05-18T12:07:44.532Z,21.30
2019-05-18T12:10:13.869Z,21.30
2019-05-18T12:12:42.968Z,21.20
2019-05-18T12:15:12.045Z,20.80
2019-05-18T12:17:40.543Z,20.50
2019-05-18T12:20:10.023Z,20.60
2019-05-18T12:22:38.614Z,20.40
2019-05-18T12:25:08.285Z,20.60
2019-05-18T12:27:36.757Z,20.80
2019-05-18T12:30:09.625Z,21.00
2019-05-18T12:32:38.132Z,21.30
2019-05-18T12:35:07.921Z,21.40
2019-05-18T12:37:36.391Z,21.80
2019-05-18T12:40:07.738Z,22.30
2019-05-18T12:42:36.222Z,22.80
2019-05-18T12:45:06.209Z,23.30
2019-05-18T12:47:34.633Z,23.60
2019-05-18T12:50:03.604Z,23.90
2019-05-18T12:52:32.055Z,24.50
2019-05-18T12:55:00.485Z,24.80
2019-05-18T12:57:29.041Z,24.70
2019-05-18T12:59:57.549Z,24.80
2019-05-18T13:02:25.990Z,24.80
2019-05-18T13:04:54.421Z,24.90
2019-05-18T13:07:22.949Z,24.90
2019-05-18T13:09:51.457Z,24.90
2019-05-18T13:12:19.891Z,24.60
2019-05-18T13:14:48.432Z,24.70
2019-05-18T13:17:16.866Z,24.90
2019-05-18T13:19:45.303Z,24.80
2019-05-18T13:22:13.864Z,24.70
2019-05-18T13:24:45.280Z,24.50
2019-05-18T13:27:12.468Z,24.70
2019-05-18T13:29:41.114Z,24.80
2019-05-18T13:32:09.542Z,25.00
2019-05-18T13:34:37.993Z,24.70
2019-05-18T13:37:06.586Z,24.20
2019-05-18T13:39:35.010Z,24.10
2019-05-18T13:42:03.527Z,23.80
2019-05-18T13:44:32.061Z,23.80
2019-05-18T13:47:00.596Z,23.80
2019-05-18T13:49:29.086Z,23.10
2019-05-18T13:51:57.547Z,21.20
2019-05-18T13:54:28.529Z,19.30
2019-05-18T13:56:56.959Z,18.40
2019-05-18T13:59:25.510Z,17.40
2019-05-18T14:01:55.113Z,16.70
2019-05-18T14:04:23.781Z,16.50
2019-05-18T14:06:52.249Z,16.30
2019-05-18T14:09:20.680Z,15.70
2019-05-18T14:11:49.109Z,15.30
2019-05-18T14:14:17.557Z,14.70
2019-05-18T14:16:45.978Z,14.10
2019-05-18T14:19:14.504Z,13.80
2019-05-18T14:21:43.028Z,13.70
2019-05-18T14:24:11.467Z,13.70
2019-05-18T14:26:39.893Z,13.60
2019-05-18T14:29:08.375Z,13.40
2019-05-18T14:31:36.801Z,13.40
2019-05-18T14:34:05.297Z,13.50
2019-05-18T14:36:33.771Z,13.80
2019-05-18T14:39:02.255Z,14.00
2019-05-18T14:41:30.725Z,14.20
2019-05-18T14:43:59.269Z,14.10
2019-05-18T14:46:27.945Z,14.20
2019-05-18T14:48:56.396Z,14.40
2019-05-18T14:51:24.835Z,14.70
2019-05-18T14:53:53.328Z,14.90
2019-05-18T14:56:21.821Z,15.10
2019-05-18T14:58:50.256Z,15.20
2019-05-18T15:01:18.687Z,15.30
2019-05-18T15:03:47.154Z,15.40
2019-05-18T15:06:17.252Z,15.50
2019-05-18T15:08:45.699Z,15.60
2019-05-18T15:11:14.125Z,15.90
2019-05-18T15:13:42.569Z,16.20
2019-05-18T15:16:11.113Z,16.50
2019-05-18T15:18:39.605Z,16.70
2019-05-18T15:21:08.121Z,16.80
2019-05-18T15:23:36.665Z,17.00
2019-05-18T15:26:05.132Z,17.30
2019-05-18T15:28:33.561Z,17.10
2019-05-18T15:31:02.035Z,17.20
2019-05-18T15:33:30.509Z,17.10
2019-05-18T15:35:58.945Z,16.80
2019-05-18T15:38:27.468Z,16.90
2019-05-18T15:40:55.893Z,16.70
2019-05-18T15:43:24.321Z,16.60
2019-05-18T15:45:52.815Z,16.40
2019-05-18T15:48:21.273Z,16.20
2019-05-18T15:50:49.858Z,16.20
2019-05-18T15:53:18.291Z,16.00
2019-05-18T15:55:46.716Z,16.10
2019-05-18T15:58:15.267Z,15.90
2019-05-18T16:00:43.714Z,16.00
2019-05-18T16:03:12.142Z,16.20
2019-05-18T16:05:40.588Z,16.20
2019-05-18T16:08:09.045Z,16.40
2019-05-18T16:10:37.564Z,16.40
2019-05-18T16:13:06.065Z,16.50
2019-05-18T16:15:34.766Z,16.50
2019-05-18T16:18:03.686Z,16.60
2019-05-18T16:20:32.124Z,16.80
2019-05-18T16:23:00.675Z,16.90
2019-05-18T16:25:29.296Z,16.90
2019-05-18T16:27:57.923Z,17.10
2019-05-18T16:30:26.504Z,17.20
2019-05-18T16:32:54.929Z,17.10
2019-05-18T16:35:23.389Z,16.90
2019-05-18T16:37:51.814Z,16.90
2019-05-18T16:40:20.703Z,16.80
2019-05-18T16:42:49.205Z,16.90
2019-05-18T16:45:18.113Z,16.90
2019-05-18T16:47:46.718Z,16.90
2019-05-18T16:50:15.541Z,16.90
2019-05-18T16:52:43.973Z,17.00
2019-05-18T16:55:12.601Z,17.00
2019-05-18T16:57:41.026Z,16.90
2019-05-18T17:00:15.145Z,16.90
2019-05-18T17:02:42.422Z,16.80
2019-05-18T17:05:12.187Z,16.90
2019-05-18T17:07:40.723Z,16.90
2019-05-18T17:10:11.230Z,16.80
2019-05-18T17:12:39.887Z,16.70
2019-05-18T17:15:10.135Z,16.50
2019-05-18T17:17:38.564Z,16.30
2019-05-18T17:20:08.347Z,16.20
2019-05-18T17:22:36.769Z,16.30
2019-05-18T17:25:06.248Z,16.30
2019-05-18T17:27:34.921Z,16.30
2019-05-18T17:30:04.880Z,16.30
2019-05-18T17:32:33.381Z,16.20
2019-05-18T17:35:01.842Z,16.30
2019-05-18T17:37:30.378Z,16.30
2019-05-18T17:39:58.835Z,16.30
2019-05-18T17:42:27.386Z,16.20
2019-05-18T17:44:55.798Z,16.20
2019-05-18T17:47:24.354Z,16.20
2019-05-18T17:49:52.785Z,16.20
2019-05-18T17:52:21.413Z,16.20
2019-05-18T17:54:50.315Z,16.20
2019-05-18T17:57:18.976Z,16.10
2019-05-18T17:59:49.503Z,16.10
2019-05-18T18:02:18.109Z,16.00
2019-05-18T18:04:46.664Z,15.80
2019-05-18T18:07:15.476Z,15.50
2019-05-18T18:09:44.206Z,15.40
2019-05-18T18:12:12.936Z,15.30
2019-05-18T18:14:41.713Z,15.40
2019-05-18T18:17:10.477Z,15.50
2019-05-18T18:19:39.301Z,15.50
2019-05-18T18:22:08.071Z,15.50
2019-05-18T18:24:36.721Z,15.50
2019-05-18T18:27:05.455Z,15.40
2019-05-18T18:29:34.014Z,15.40
2019-05-18T18:32:02.436Z,15.40
2019-05-18T18:34:30.889Z,15.30
2019-05-18T18:36:59.548Z,15.30
2019-05-18T18:39:31.325Z,15.40
2019-05-18T18:42:03.075Z,15.40
2019-05-18T18:44:31.874Z,15.30
2019-05-18T18:47:00.466Z,15.30
2019-05-18T18:49:29.150Z,15.20
2019-05-18T18:51:57.705Z,15.10
2019-05-18T18:54:26.529Z,15.00
2019-05-18T18:56:55.092Z,14.90
2019-05-18T18:59:23.661Z,14.90
2019-05-18T19:01:52.387Z,14.90
2019-05-18T19:04:21.194Z,14.80
2019-05-18T19:06:49.984Z,14.80
2019-05-18T19:09:18.712Z,14.80
2019-05-18T19:11:47.627Z,14.80
2019-05-18T19:14:16.101Z,14.70
2019-05-18T19:16:46.420Z,14.70
2019-05-18T19:19:14.972Z,14.70
2019-05-18T19:21:43.712Z,14.60
2019-05-18T19:24:12.237Z,14.60
2019-05-18T19:26:40.712Z,14.50
2019-05-18T19:29:09.406Z,14.50
2019-05-18T19:31:37.859Z,14.50
2019-05-18T19:34:06.367Z,14.40
2019-05-18T19:36:35.401Z,14.40
2019-05-18T19:39:06.158Z,14.40
2019-05-18T19:41:34.703Z,14.40
2019-05-18T19:44:03.166Z,14.40
2019-05-18T19:46:31.895Z,14.40
2019-05-18T19:49:00.336Z,14.30
2019-05-18T19:51:29.106Z,14.30
2019-05-18T19:53:58.036Z,14.30
2019-05-18T19:56:26.974Z,14.20
2019-05-18T19:58:55.504Z,14.20
2019-05-18T20:01:24.295Z,14.10
2019-05-18T20:03:53.161Z,14.10
2019-05-18T20:06:21.703Z,14.10
2019-05-18T20:08:50.677Z,14.10
2019-05-18T20:11:19.512Z,14.10
2019-05-18T20:13:48.307Z,14.00
2019-05-18T20:16:17.327Z,13.90
2019-05-18T20:18:45.870Z,13.90
2019-05-18T20:21:14.359Z,13.90
2019-05-18T20:23:43.119Z,13.80
2019-05-18T20:26:11.931Z,13.80
2019-05-18T20:28:41.142Z,13.80
2019-05-18T20:31:10.177Z,13.80
2019-05-18T20:33:38.767Z,13.80
2019-05-18T20:36:07.264Z,13.70
2019-05-18T20:38:36.124Z,13.70
2019-05-18T20:41:04.876Z,13.70
2019-05-18T20:43:35.224Z,13.70
2019-05-18T20:46:04.205Z,13.70
2019-05-18T20:48:33.248Z,13.70
2019-05-18T20:51:01.877Z,13.70
2019-05-18T20:53:32.362Z,13.70
2019-05-18T20:56:00.821Z,13.60
2019-05-18T20:58:39.595Z,13.70
2019-05-18T21:00:59.705Z,13.60
2019-05-18T21:03:28.513Z,13.50
2019-05-18T21:05:57.029Z,13.40
2019-05-18T21:08:26.024Z,13.40
2019-05-18T21:10:54.564Z,13.40
2019-05-18T21:13:23.282Z,13.40
2019-05-18T21:15:54.276Z,13.30
2019-05-18T21:18:23.061Z,13.30
2019-05-18T21:20:51.600Z,13.30
2019-05-18T21:23:20.940Z,13.30
2019-05-18T21:25:49.704Z,13.20
2019-05-18T21:28:19.233Z,13.20
2019-05-18T21:30:47.878Z,13.20
2019-05-18T21:33:16.422Z,13.20
2019-05-18T21:35:45.190Z,13.20
2019-05-18T21:38:13.689Z,13.00
2019-05-18T21:40:42.475Z,13.00
2019-05-18T21:43:10.996Z,12.90
2019-05-18T21:45:39.511Z,12.90
2019-05-18T21:48:07.933Z,12.80
2019-05-18T21:50:36.393Z,12.80
2019-05-18T21:53:05.277Z,12.90
2019-05-18T21:55:33.791Z,12.80
2019-05-18T21:58:02.233Z,12.80
2019-05-18T22:00:32.253Z,12.80
2019-05-18T22:03:00.859Z,12.70
2019-05-18T22:05:29.341Z,12.80
2019-05-18T22:07:57.816Z,12.70
2019-05-18T22:10:26.334Z,12.60
2019-05-18T22:12:54.769Z,12.60
2019-05-18T22:15:23.321Z,12.60
2019-05-18T22:18:03.774Z,12.60
2019-05-18T22:20:33.671Z,12.60
2019-05-18T22:23:02.576Z,12.50
2019-05-18T22:25:31.448Z,12.40
2019-05-18T22:28:00.010Z,12.40
2019-05-18T22:30:28.560Z,12.30
2019-05-18T22:32:57.235Z,12.20
2019-05-18T22:35:25.776Z,12.10
2019-05-18T22:37:54.276Z,12.00
2019-05-18T22:40:22.779Z,12.00
2019-05-18T22:42:51.208Z,11.90
2019-05-18T22:45:19.760Z,11.80
2019-05-18T22:47:48.245Z,11.70
2019-05-18T22:50:16.983Z,11.70
2019-05-18T22:52:45.425Z,11.70
2019-05-18T22:55:14.229Z,11.70
2019-05-18T22:57:42.664Z,11.70
2019-05-18T23:00:11.645Z,11.70
2019-05-18T23:02:40.097Z,11.70
2019-05-18T23:05:08.660Z,11.70
2019-05-18T23:07:37.144Z,11.80
2019-05-18T23:10:07.141Z,11.80
2019-05-18T23:12:35.745Z,11.80
2019-05-18T23:15:06.565Z,11.80
2019-05-18T23:17:34.998Z,11.80
2019-05-18T23:20:03.701Z,11.90
2019-05-18T23:22:32.145Z,11.90
2019-05-18T23:25:00.854Z,11.90
2019-05-18T23:27:29.344Z,11.80
2019-05-18T23:29:57.792Z,11.80
2019-05-18T23:32:26.236Z,11.70
2019-05-18T23:34:54.701Z,11.70
2019-05-18T23:37:23.261Z,11.70
2019-05-18T23:39:51.692Z,11.70
2019-05-18T23:42:20.226Z,11.70
2019-05-18T23:44:48.698Z,11.70
2019-05-18T23:47:17.252Z,11.60
2019-05-18T23:49:45.745Z,11.60
2019-05-18T23:52:15.017Z,11.60
2019-05-18T23:54:43.568Z,11.50
2019-05-18T23:57:12.054Z,11.50
2019-05-18T23:59:40.484Z,11.50
